createdAt,value
2022-08-19T00:01:39.909Z,20.26
2022-08-19T00:04:12.466Z,20.24
2022-08-19T00:06:42.524Z,20.32
2022-08-19T00:09:13.778Z,20.50
2022-08-19T00:11:42.085Z,20.50
2022-08-19T00:14:12.346Z,20.47
2022-08-19T00:16:40.850Z,20.46
2022-08-19T00:19:11.183Z,20.39
2022-08-19T00:21:40.396Z,20.28
2022-08-19T00:24:09.004Z,20.30
2022-08-19T00:26:37.513Z,20.23
2022-08-19T00:29:05.888Z,20.18
2022-08-19T00:31:34.116Z,20.15
2022-08-19T00:34:02.045Z,20.10
2022-08-19T00:36:32.840Z,20.09
2022-08-19T00:39:00.898Z,20.07
2022-08-19T00:41:29.266Z,19.95
2022-08-19T00:44:00.813Z,19.97
2022-08-19T00:46:29.181Z,19.90
2022-08-19T00:48:58.576Z,19.85
2022-08-19T00:51:27.495Z,19.99
2022-08-19T00:53:57.610Z,20.06
2022-08-19T00:56:27.238Z,20.10
2022-08-19T00:58:56.312Z,20.15
2022-08-19T01:01:24.194Z,19.92
2022-08-19T01:03:57.117Z,20.11
2022-08-19T01:06:27.466Z,20.01
2022-08-19T01:08:57.396Z,20.02
2022-08-19T01:11:25.296Z,20.09
2022-08-19T01:13:54.557Z,20.08
2022-08-19T01:16:24.702Z,20.02
2022-08-19T01:18:53.300Z,19.89
2022-08-19T01:21:31.174Z,20.00
2022-08-19T01:24:00.536Z,19.98
2022-08-19T01:26:29.171Z,19.76
2022-08-19T01:29:02.029Z,19.80
2022-08-19T01:31:32.826Z,19.79
2022-08-19T01:34:01.975Z,19.62
2022-08-19T01:36:32.354Z,19.63
2022-08-19T01:39:03.077Z,19.74
2022-08-19T01:41:31.020Z,19.75
2022-08-19T01:44:13.698Z,19.91
2022-08-19T01:46:48.157Z,19.85
2022-08-19T01:49:17.271Z,19.60
2022-08-19T01:51:45.218Z,19.69
2022-08-19T01:54:23.090Z,19.77
2022-08-19T01:56:58.213Z,19.63
2022-08-19T01:59:26.519Z,19.61
2022-08-19T02:01:54.506Z,19.58
2022-08-19T02:04:22.576Z,19.53
2022-08-19T02:06:50.428Z,19.53
2022-08-19T02:09:19.680Z,19.49
2022-08-19T02:11:47.529Z,19.61
2022-08-19T02:14:15.410Z,19.78
2022-08-19T02:16:43.273Z,19.73
2022-08-19T02:19:11.385Z,19.82
2022-08-19T02:21:39.544Z,19.79
2022-08-19T02:24:07.801Z,19.87
2022-08-19T02:26:37.286Z,19.87
2022-08-19T02:29:05.652Z,19.58
2022-08-19T02:31:34.250Z,19.56
2022-08-19T02:34:02.620Z,19.43
2022-08-19T02:36:31.227Z,19.38
2022-08-19T02:38:58.305Z,19.44
2022-08-19T02:41:27.974Z,19.38
2022-08-19T02:44:28.591Z,19.46
2022-08-19T02:46:48.300Z,19.74
2022-08-19T02:49:17.376Z,19.76
2022-08-19T02:51:47.219Z,19.77
2022-08-19T02:54:15.340Z,19.72
2022-08-19T02:56:44.539Z,19.86
2022-08-19T02:59:13.857Z,19.82
2022-08-19T03:01:43.406Z,19.56
2022-08-19T03:04:13.643Z,19.53
2022-08-19T03:06:42.447Z,19.47
2022-08-19T03:09:11.153Z,19.62
2022-08-19T03:11:39.495Z,19.73
2022-08-19T03:14:08.572Z,19.60
2022-08-19T03:16:43.301Z,19.63
2022-08-19T03:19:11.220Z,19.50
2022-08-19T03:21:39.143Z,19.38
2022-08-19T03:24:09.919Z,19.50
2022-08-19T03:26:41.252Z,19.50
2022-08-19T03:29:10.349Z,19.59
2022-08-19T03:31:51.181Z,19.63
2022-08-19T03:34:23.220Z,19.54
2022-08-19T03:36:51.201Z,19.50
2022-08-19T03:39:19.440Z,19.40
2022-08-19T03:41:50.877Z,19.26
2022-08-19T03:44:39.565Z,19.30
2022-08-19T03:47:09.155Z,19.45
2022-08-19T03:49:38.844Z,19.42
2022-08-19T03:52:08.603Z,19.33
2022-08-19T03:54:37.147Z,19.38
2022-08-19T03:57:05.624Z,19.43
2022-08-19T03:59:36.242Z,19.54
2022-08-19T04:02:10.092Z,19.36
2022-08-19T04:04:40.290Z,19.33
2022-08-19T04:07:09.310Z,19.29
2022-08-19T04:09:38.198Z,19.28
2022-08-19T04:12:07.609Z,19.13
2022-08-19T04:14:36.108Z,19.07
2022-08-19T04:17:06.442Z,19.24
2022-08-19T04:19:35.381Z,19.36
2022-08-19T04:22:05.926Z,19.45
2022-08-19T04:24:34.017Z,19.13
2022-08-19T04:27:03.038Z,19.08
2022-08-19T04:29:31.404Z,19.14
2022-08-19T04:32:08.805Z,19.19
2022-08-19T04:35:02.274Z,19.42
2022-08-19T04:37:34.686Z,19.44
2022-08-19T04:40:23.973Z,19.64
2022-08-19T04:42:52.243Z,19.47
2022-08-19T04:45:20.741Z,19.27
2022-08-19T04:47:57.921Z,19.22
2022-08-19T04:50:42.680Z,19.21
2022-08-19T04:53:12.210Z,19.34
2022-08-19T04:55:43.904Z,19.41
2022-08-19T04:58:11.930Z,19.50
2022-08-19T05:00:40.951Z,19.69
2022-08-19T05:03:09.614Z,19.75
2022-08-19T05:05:45.321Z,19.77
2022-08-19T05:08:31.506Z,19.71
2022-08-19T05:11:00.055Z,19.58
2022-08-19T05:13:28.472Z,19.76
2022-08-19T05:15:57.886Z,19.86
2022-08-19T05:18:43.532Z,19.97
2022-08-19T05:21:32.026Z,19.83
2022-08-19T05:24:01.430Z,20.14
2022-08-19T05:26:29.684Z,20.16
2022-08-19T05:28:57.573Z,20.14
2022-08-19T05:31:25.456Z,20.31
2022-08-19T05:33:53.282Z,20.40
2022-08-19T05:36:21.715Z,20.35
2022-08-19T05:38:51.065Z,20.48
2022-08-19T05:41:21.584Z,20.53
2022-08-19T05:43:51.687Z,20.52
2022-08-19T05:46:28.108Z,20.48
2022-08-19T05:48:57.449Z,20.57
2022-08-19T05:51:28.907Z,20.56
2022-08-19T05:53:57.334Z,20.61
2022-08-19T05:56:26.638Z,20.70
2022-08-19T05:58:55.171Z,20.46
2022-08-19T06:01:23.457Z,20.49
2022-08-19T06:03:51.867Z,20.63
2022-08-19T06:06:21.019Z,20.78
2022-08-19T06:08:51.726Z,20.71
2022-08-19T06:11:22.921Z,20.96
2022-08-19T06:13:59.700Z,21.11
2022-08-19T06:16:28.920Z,21.15
2022-08-19T06:18:58.512Z,21.24
2022-08-19T06:21:29.278Z,21.36
2022-08-19T06:23:58.166Z,21.61
2022-08-19T06:26:27.461Z,21.66
2022-08-19T06:28:57.095Z,21.78
2022-08-19T06:31:27.007Z,21.78
2022-08-19T06:33:55.229Z,21.87
2022-08-19T06:36:32.608Z,22.02
2022-08-19T06:39:00.677Z,22.15
2022-08-19T06:41:28.888Z,22.19
2022-08-19T06:44:00.031Z,22.16
2022-08-19T06:46:28.426Z,22.26
2022-08-19T06:48:56.996Z,22.32
2022-08-19T06:51:25.230Z,22.33
2022-08-19T06:53:56.549Z,22.25
2022-08-19T06:56:34.660Z,22.25
2022-08-19T06:59:06.231Z,22.18
2022-08-19T07:01:38.410Z,22.38
2022-08-19T07:04:07.935Z,22.60
2022-08-19T07:06:44.262Z,22.36
2022-08-19T07:09:18.353Z,22.60
2022-08-19T07:11:47.827Z,22.75
2022-08-19T07:14:19.882Z,23.22
2022-08-19T07:16:49.388Z,23.59
2022-08-19T07:19:18.844Z,24.09
2022-08-19T07:21:48.124Z,23.85
2022-08-19T07:24:17.191Z,23.65
2022-08-19T07:26:46.288Z,23.70
2022-08-19T07:29:14.964Z,23.70
2022-08-19T07:31:44.302Z,24.00
2022-08-19T07:34:14.445Z,24.02
2022-08-19T07:36:44.222Z,23.81
2022-08-19T07:39:19.896Z,24.40
2022-08-19T07:41:48.496Z,24.36
2022-08-19T07:44:17.262Z,24.68
2022-08-19T07:46:51.532Z,24.59
2022-08-19T07:49:22.333Z,24.58
2022-08-19T07:51:52.212Z,24.69
2022-08-19T07:54:21.252Z,24.86
2022-08-19T07:56:52.481Z,24.74
2022-08-19T07:59:21.549Z,24.82
2022-08-19T08:01:51.295Z,24.97
2022-08-19T08:04:37.485Z,24.66
2022-08-19T08:07:24.119Z,25.35
2022-08-19T08:09:52.304Z,25.80
2022-08-19T08:12:34.317Z,25.67
2022-08-19T08:15:08.156Z,25.66
2022-08-19T08:17:48.834Z,25.80
2022-08-19T08:20:20.794Z,25.88
2022-08-19T08:23:06.853Z,25.57
2022-08-19T08:25:36.571Z,25.55
2022-08-19T08:28:06.054Z,25.90
2022-08-19T08:30:36.745Z,26.07
2022-08-19T08:33:06.799Z,26.21
2022-08-19T08:35:35.410Z,26.49
2022-08-19T08:38:04.686Z,26.39
2022-08-19T08:40:39.245Z,26.07
2022-08-19T08:43:11.639Z,26.11
2022-08-19T08:45:45.649Z,26.10
2022-08-19T08:48:26.579Z,26.40
2022-08-19T08:50:57.070Z,26.13
2022-08-19T08:53:29.239Z,26.27
2022-08-19T08:55:58.361Z,26.11
2022-08-19T08:58:30.212Z,27.02
2022-08-19T09:00:59.408Z,27.66
2022-08-19T09:03:31.671Z,27.89
2022-08-19T09:06:04.389Z,27.29
2022-08-19T09:08:40.943Z,27.27
2022-08-19T09:11:15.669Z,27.21
2022-08-19T09:14:23.576Z,26.73
2022-08-19T09:16:58.838Z,26.77
2022-08-19T09:19:28.187Z,26.49
2022-08-19T09:21:57.511Z,26.57
2022-08-19T09:24:25.413Z,26.80
2022-08-19T09:26:59.239Z,27.18
2022-08-19T09:29:27.380Z,28.01
2022-08-19T09:31:55.775Z,28.72
2022-08-19T09:34:23.822Z,28.85
2022-08-19T09:36:54.535Z,28.19
2022-08-19T09:39:22.976Z,28.45
2022-08-19T09:41:51.214Z,28.55
2022-08-19T09:44:21.333Z,28.31
2022-08-19T09:46:50.096Z,28.23
2022-08-19T09:49:19.106Z,28.02
2022-08-19T09:51:51.278Z,28.87
2022-08-19T09:54:23.556Z,28.78
2022-08-19T09:56:53.273Z,28.61
2022-08-19T09:59:21.380Z,29.15
2022-08-19T10:01:49.384Z,29.59
2022-08-19T10:04:20.499Z,28.94
2022-08-19T10:06:53.408Z,28.62
2022-08-19T10:09:26.314Z,28.59
2022-08-19T10:12:03.109Z,29.20
2022-08-19T10:14:31.684Z,30.03
2022-08-19T10:17:01.270Z,29.71
2022-08-19T10:19:36.802Z,29.08
2022-08-19T10:22:10.070Z,29.19
2022-08-19T10:24:42.176Z,29.42
2022-08-19T10:27:10.602Z,29.58
2022-08-19T10:29:38.942Z,29.78
2022-08-19T10:32:14.484Z,29.31
2022-08-19T10:34:47.933Z,28.86
2022-08-19T10:37:23.712Z,28.72
2022-08-19T10:39:58.545Z,28.42
2022-08-19T10:42:26.474Z,28.05
2022-08-19T10:44:54.364Z,28.21
2022-08-19T10:47:25.443Z,28.32
2022-08-19T10:50:12.499Z,28.43
2022-08-19T10:52:49.648Z,28.26
2022-08-19T10:55:39.418Z,28.14
2022-08-19T10:58:13.222Z,29.07
2022-08-19T11:00:41.422Z,29.78
2022-08-19T11:03:09.613Z,30.40
2022-08-19T11:05:40.442Z,30.98
2022-08-19T11:08:23.283Z,31.40
2022-08-19T11:11:01.653Z,32.02
2022-08-19T11:13:30.284Z,30.90
2022-08-19T11:16:02.798Z,29.63
2022-08-19T11:18:35.062Z,29.38
2022-08-19T11:21:10.899Z,29.04
2022-08-19T11:23:38.876Z,28.48
2022-08-19T11:26:08.506Z,29.09
2022-08-19T11:28:36.417Z,29.87
2022-08-19T11:31:05.006Z,30.40
2022-08-19T11:33:33.682Z,30.13
2022-08-19T11:36:02.123Z,30.10
2022-08-19T11:38:30.183Z,30.36
2022-08-19T11:40:59.007Z,31.75
2022-08-19T11:43:29.477Z,32.77
2022-08-19T11:45:57.527Z,33.46
2022-08-19T11:48:26.298Z,33.29
2022-08-19T11:50:56.337Z,33.44
2022-08-19T11:53:24.595Z,32.88
2022-08-19T11:55:53.494Z,33.08
2022-08-19T11:58:21.622Z,32.49
2022-08-19T12:00:50.895Z,33.22
2022-08-19T12:03:19.410Z,34.26
2022-08-19T12:05:47.461Z,33.95
2022-08-19T12:08:16.481Z,33.91
2022-08-19T12:10:46.294Z,34.96
2022-08-19T12:13:16.582Z,34.43
2022-08-19T12:15:46.341Z,34.86
2022-08-19T12:18:15.851Z,34.87
2022-08-19T12:20:46.732Z,35.35
2022-08-19T12:23:14.674Z,32.91
2022-08-19T12:25:49.332Z,33.06
2022-08-19T12:28:17.389Z,33.13
2022-08-19T12:30:45.304Z,34.50
2022-08-19T12:33:14.540Z,35.66
2022-08-19T12:35:45.745Z,33.61
2022-08-19T12:38:13.845Z,34.03
2022-08-19T12:40:41.755Z,34.99
2022-08-19T12:43:10.524Z,33.79
2022-08-19T12:45:38.589Z,34.61
2022-08-19T12:48:33.019Z,36.13
2022-08-19T12:50:57.654Z,35.92
2022-08-19T12:53:26.107Z,35.82
2022-08-19T12:55:57.943Z,34.71
2022-08-19T12:58:27.451Z,33.77
2022-08-19T13:00:55.764Z,32.20
2022-08-19T13:03:28.376Z,32.56
2022-08-19T13:05:57.898Z,33.99
2022-08-19T13:08:26.058Z,35.17
2022-08-19T13:10:54.523Z,36.00
2022-08-19T13:13:22.658Z,36.38
2022-08-19T13:15:50.599Z,36.62
2022-08-19T13:18:18.592Z,36.81
2022-08-19T13:20:52.453Z,36.15
2022-08-19T13:23:22.613Z,35.51
2022-08-19T13:25:58.214Z,36.19
2022-08-19T13:28:29.031Z,36.88
2022-08-19T13:31:17.123Z,34.58
2022-08-19T13:33:46.251Z,35.93
2022-08-19T13:36:14.141Z,36.45
2022-08-19T13:38:46.280Z,36.59
2022-08-19T13:41:14.996Z,34.32
2022-08-19T13:43:42.945Z,32.94
2022-08-19T13:46:14.182Z,33.69
2022-08-19T13:48:42.718Z,35.24
2022-08-19T13:51:11.368Z,35.38
2022-08-19T13:53:39.776Z,35.55
2022-08-19T13:56:10.345Z,37.57
2022-08-19T13:58:38.583Z,38.32
2022-08-19T14:01:07.380Z,37.30
2022-08-19T14:03:36.670Z,36.25
2022-08-19T14:06:04.891Z,35.50
2022-08-19T14:08:33.324Z,36.03
2022-08-19T14:11:06.407Z,35.11
2022-08-19T14:13:36.302Z,34.49
2022-08-19T14:16:08.908Z,35.57
2022-08-19T14:18:37.021Z,37.21
2022-08-19T14:21:05.651Z,35.73
2022-08-19T14:23:33.928Z,34.99
2022-08-19T14:26:10.137Z,36.38
2022-08-19T14:28:41.827Z,37.12
2022-08-19T14:31:10.141Z,36.02
2022-08-19T14:33:37.971Z,34.12
2022-08-19T14:36:06.449Z,33.94
2022-08-19T14:38:34.589Z,34.24
2022-08-19T14:41:13.971Z,33.62
2022-08-19T14:43:43.274Z,33.45
2022-08-19T14:46:11.476Z,33.16
2022-08-19T14:48:41.597Z,32.86
2022-08-19T14:51:09.842Z,32.59
2022-08-19T14:53:37.828Z,32.01
2022-08-19T14:56:09.948Z,31.92
2022-08-19T14:58:39.162Z,33.08
2022-08-19T15:01:09.281Z,34.08
2022-08-19T15:03:37.597Z,33.97
2022-08-19T15:06:07.636Z,35.35
2022-08-19T15:08:37.891Z,34.20
2022-08-19T15:11:10.726Z,34.68
2022-08-19T15:13:38.712Z,35.34
2022-08-19T15:16:17.800Z,36.45
2022-08-19T15:18:48.208Z,36.47
2022-08-19T15:21:26.694Z,34.82
2022-08-19T15:23:56.687Z,34.86
2022-08-19T15:26:25.666Z,34.20
2022-08-19T15:28:53.599Z,34.08
2022-08-19T15:31:28.061Z,33.52
2022-08-19T15:33:58.469Z,33.80
2022-08-19T15:36:26.975Z,33.96
2022-08-19T15:38:55.554Z,33.89
2022-08-19T15:41:26.687Z,33.68
2022-08-19T15:43:56.574Z,33.35
2022-08-19T15:46:28.386Z,32.66
2022-08-19T15:49:00.157Z,32.93
2022-08-19T15:51:30.376Z,32.20
2022-08-19T15:53:58.866Z,31.75
2022-08-19T15:56:27.645Z,31.08
2022-08-19T15:59:13.946Z,31.35
2022-08-19T16:02:01.155Z,30.88
2022-08-19T16:04:46.822Z,30.88
2022-08-19T16:07:14.804Z,31.26
2022-08-19T16:09:50.853Z,31.33
2022-08-19T16:12:18.967Z,31.28
2022-08-19T16:14:47.981Z,30.58
2022-08-19T16:17:17.375Z,30.38
2022-08-19T16:19:47.578Z,30.55
2022-08-19T16:22:17.936Z,30.82
2022-08-19T16:24:45.899Z,30.48
2022-08-19T16:27:13.777Z,30.93
2022-08-19T16:29:41.684Z,31.01
2022-08-19T16:32:11.749Z,30.87
2022-08-19T16:34:42.399Z,30.80
2022-08-19T16:37:10.907Z,30.77
2022-08-19T16:39:38.972Z,30.93
2022-08-19T16:42:08.698Z,30.65
2022-08-19T16:44:36.952Z,30.20
2022-08-19T16:47:05.049Z,30.15
2022-08-19T16:49:53.817Z,30.20
2022-08-19T16:52:26.902Z,30.43
2022-08-19T16:54:55.045Z,30.84
2022-08-19T16:57:24.407Z,31.02
2022-08-19T16:59:52.889Z,31.34
2022-08-19T17:02:23.447Z,31.25
2022-08-19T17:04:58.047Z,31.15
2022-08-19T17:07:28.573Z,31.78
2022-08-19T17:09:57.422Z,32.84
2022-08-19T17:12:30.579Z,33.18
2022-08-19T17:15:02.202Z,33.21
2022-08-19T17:17:30.491Z,33.75
2022-08-19T17:19:59.060Z,33.80
2022-08-19T17:22:28.985Z,33.55
2022-08-19T17:24:58.396Z,33.83
2022-08-19T17:27:31.421Z,33.14
2022-08-19T17:30:02.355Z,32.31
2022-08-19T17:32:30.797Z,32.00
2022-08-19T17:34:58.760Z,31.26
2022-08-19T17:37:28.156Z,31.01
2022-08-19T17:39:56.226Z,30.96
2022-08-19T17:42:24.149Z,30.99
2022-08-19T17:44:51.981Z,30.46
2022-08-19T17:47:21.246Z,30.01
2022-08-19T17:49:49.210Z,29.67
2022-08-19T17:52:17.132Z,29.59
2022-08-19T17:54:46.934Z,29.18
2022-08-19T17:57:15.101Z,28.98
2022-08-19T17:59:43.164Z,28.87
2022-08-19T18:02:12.099Z,28.90
2022-08-19T18:04:41.392Z,28.62
2022-08-19T18:07:11.012Z,28.49
2022-08-19T18:09:42.878Z,28.27
2022-08-19T18:12:23.340Z,28.18
2022-08-19T18:14:51.693Z,28.14
2022-08-19T18:17:22.892Z,28.02
2022-08-19T18:19:50.802Z,27.81
2022-08-19T18:22:27.920Z,27.79
2022-08-19T18:24:59.112Z,27.63
2022-08-19T18:27:28.876Z,27.56
2022-08-19T18:29:59.077Z,27.64
2022-08-19T18:32:27.945Z,27.53
2022-08-19T18:34:56.129Z,27.47
2022-08-19T18:37:25.709Z,27.46
2022-08-19T18:40:11.542Z,27.42
2022-08-19T18:43:02.281Z,27.31
2022-08-19T18:45:48.111Z,27.26
2022-08-19T18:48:33.956Z,27.34
2022-08-19T18:51:02.630Z,27.30
2022-08-19T18:53:33.303Z,27.18
2022-08-19T18:56:01.482Z,27.06
2022-08-19T18:58:34.352Z,27.02
2022-08-19T19:01:12.896Z,26.95
2022-08-19T19:03:43.589Z,26.83
2022-08-19T19:06:11.608Z,26.83
2022-08-19T19:08:40.917Z,26.77
2022-08-19T19:11:09.275Z,26.66
2022-08-19T19:13:40.992Z,26.66
2022-08-19T19:16:12.359Z,26.59
2022-08-19T19:18:40.574Z,26.60
2022-08-19T19:21:09.234Z,26.58
2022-08-19T19:23:40.890Z,26.45
2022-08-19T19:26:10.516Z,26.45
2022-08-19T19:28:43.681Z,26.38
2022-08-19T19:31:13.791Z,26.34
2022-08-19T19:33:41.647Z,26.13
2022-08-19T19:36:09.871Z,26.09
2022-08-19T19:38:37.718Z,26.21
2022-08-19T19:41:05.784Z,26.23
2022-08-19T19:43:34.878Z,26.28
2022-08-19T19:46:10.332Z,26.18
2022-08-19T19:48:38.260Z,26.21
2022-08-19T19:51:06.324Z,26.12
2022-08-19T19:53:34.229Z,25.98
2022-08-19T19:56:02.581Z,26.06
2022-08-19T19:58:31.923Z,25.97
2022-08-19T20:01:01.215Z,25.97
2022-08-19T20:03:33.184Z,25.84
2022-08-19T20:06:01.070Z,25.81
2022-08-19T20:08:47.504Z,25.89
2022-08-19T20:11:31.047Z,25.80
2022-08-19T20:14:01.094Z,25.73
2022-08-19T20:16:30.882Z,25.78
2022-08-19T20:19:01.936Z,25.59
2022-08-19T20:21:32.448Z,25.60
2022-08-19T20:24:08.559Z,25.59
2022-08-19T20:26:38.453Z,25.46
2022-08-19T20:29:13.824Z,25.47
2022-08-19T20:31:57.977Z,25.47
2022-08-19T20:34:29.224Z,25.42
2022-08-19T20:36:57.205Z,25.37
2022-08-19T20:39:25.157Z,25.38
2022-08-19T20:41:53.067Z,25.45
2022-08-19T20:44:21.486Z,25.30
2022-08-19T20:46:54.265Z,25.40
2022-08-19T20:49:27.059Z,25.46
2022-08-19T20:51:57.465Z,25.52
2022-08-19T20:54:25.925Z,25.53
2022-08-19T20:56:53.987Z,25.51
2022-08-19T20:59:23.119Z,25.64
2022-08-19T21:01:52.280Z,25.64
2022-08-19T21:04:20.326Z,25.48
2022-08-19T21:06:48.220Z,25.56
2022-08-19T21:09:17.467Z,25.59
2022-08-19T21:11:45.544Z,25.59
2022-08-19T21:14:13.777Z,25.52
2022-08-19T21:16:41.706Z,25.43
2022-08-19T21:19:09.757Z,25.38
2022-08-19T21:21:37.871Z,25.52
2022-08-19T21:24:06.389Z,25.53
2022-08-19T21:26:35.779Z,25.50
2022-08-19T21:29:03.809Z,25.55
2022-08-19T21:31:31.677Z,25.56
2022-08-19T21:34:00.915Z,25.63
2022-08-19T21:36:28.865Z,25.60
2022-08-19T21:38:56.748Z,25.65
2022-08-19T21:41:24.667Z,25.55
2022-08-19T21:43:53.889Z,25.60
2022-08-19T21:46:22.391Z,25.55
2022-08-19T21:48:50.326Z,25.56
2022-08-19T21:51:18.301Z,25.56
2022-08-19T21:53:49.192Z,25.56
2022-08-19T21:56:20.880Z,25.47
2022-08-19T21:58:48.748Z,25.45
2022-08-19T22:01:18.306Z,25.55
2022-08-19T22:03:46.299Z,25.45
2022-08-19T22:06:14.204Z,25.62
2022-08-19T22:08:44.628Z,25.62
2022-08-19T22:11:13.042Z,25.43
2022-08-19T22:13:41.205Z,25.56
2022-08-19T22:16:10.452Z,25.60
2022-08-19T22:18:39.780Z,25.51
2022-08-19T22:21:11.698Z,25.52
2022-08-19T22:23:40.839Z,25.51
2022-08-19T22:26:09.105Z,25.44
2022-08-19T22:28:37.138Z,25.43
2022-08-19T22:31:05.861Z,25.57
2022-08-19T22:33:34.824Z,25.68
2022-08-19T22:36:07.510Z,25.61
2022-08-19T22:38:35.741Z,25.50
2022-08-19T22:41:03.688Z,25.57
2022-08-19T22:43:32.431Z,25.65
2022-08-19T22:46:01.201Z,25.49
2022-08-19T22:48:31.396Z,25.59
2022-08-19T22:51:17.430Z,25.45
2022-08-19T22:53:47.956Z,25.35
2022-08-19T22:56:18.185Z,25.17
2022-08-19T22:58:47.027Z,25.18
2022-08-19T23:01:27.726Z,25.16
2022-08-19T23:03:59.348Z,25.30
2022-08-19T23:06:33.209Z,25.00
2022-08-19T23:09:05.126Z,25.19
2022-08-19T23:11:35.557Z,25.10
2022-08-19T23:14:06.808Z,25.00
2022-08-19T23:16:36.987Z,25.08
2022-08-19T23:19:05.118Z,25.17
2022-08-19T23:21:33.113Z,25.34
2022-08-19T23:24:01.406Z,25.41
2022-08-19T23:26:35.166Z,25.26
2022-08-19T23:29:21.541Z,25.33
2022-08-19T23:31:49.781Z,25.05
2022-08-19T23:34:18.043Z,25.10
2022-08-19T23:36:46.280Z,25.26
2022-08-19T23:39:14.194Z,25.18
2022-08-19T23:41:43.606Z,25.07
2022-08-19T23:44:14.802Z,25.05
2022-08-19T23:46:54.546Z,24.93
2022-08-19T23:49:22.843Z,24.90
2022-08-19T23:51:50.749Z,24.87
2022-08-19T23:54:18.764Z,24.34
2022-08-19T23:56:48.093Z,23.80
2022-08-19T23:59:16.318Z,23.49
